createdAt,value
2023-01-13T00:03:14.601Z,4.03
2023-01-13T00:05:42.011Z,4.07
2023-01-13T00:08:09.298Z,3.95
2023-01-13T00:10:37.132Z,3.70
2023-01-13T00:13:05.805Z,3.80
2023-01-13T00:15:34.339Z,4.38
2023-01-13T00:18:01.809Z,3.65
2023-01-13T00:20:35.286Z,3.50
2023-01-13T00:23:04.752Z,3.17
2023-01-13T00:25:32.243Z,3.65
2023-01-13T00:27:59.673Z,3.45
2023-01-13T00:30:27.061Z,2.97
2023-01-13T00:32:56.650Z,3.35
2023-01-13T00:35:24.029Z,3.35
2023-01-13T00:37:51.591Z,3.30
2023-01-13T00:40:20.107Z,3.85
2023-01-13T00:43:07.828Z,3.40
2023-01-13T00:45:35.415Z,3.50
2023-01-13T00:48:02.888Z,3.13
2023-01-13T00:50:32.817Z,3.88
2023-01-13T00:53:02.894Z,3.42
2023-01-13T00:55:35.943Z,3.85
2023-01-13T00:58:04.525Z,3.33
2023-01-13T01:00:33.610Z,3.75
2023-01-13T01:03:01.010Z,3.85
2023-01-13T01:05:30.549Z,3.90
2023-01-13T01:07:57.859Z,3.97
2023-01-13T01:10:25.739Z,4.35
2023-01-13T01:12:53.298Z,3.92
2023-01-13T01:15:20.797Z,3.88
2023-01-13T01:17:49.166Z,3.78
2023-01-13T01:20:17.888Z,4.03
2023-01-13T01:22:45.140Z,4.20
2023-01-13T01:25:12.650Z,3.40
2023-01-13T01:27:40.091Z,4.10
2023-01-13T01:30:10.009Z,4.93
2023-01-13T01:32:37.660Z,4.10
2023-01-13T01:35:05.427Z,3.60
2023-01-13T01:37:34.008Z,3.42
2023-01-13T01:40:01.519Z,3.45
2023-01-13T01:42:48.349Z,3.75
2023-01-13T01:45:21.502Z,3.95
2023-01-13T01:47:59.901Z,3.55
2023-01-13T01:50:28.655Z,3.72
2023-01-13T01:53:07.599Z,3.78
2023-01-13T01:55:39.905Z,3.40
2023-01-13T01:58:22.988Z,3.40
2023-01-13T02:00:50.321Z,3.42
2023-01-13T02:03:18.128Z,3.33
2023-01-13T02:05:45.853Z,3.80
2023-01-13T02:08:14.596Z,3.13
2023-01-13T02:10:46.461Z,3.78
2023-01-13T02:13:15.014Z,2.95
2023-01-13T02:16:14.103Z,2.83
2023-01-13T02:19:02.672Z,2.72
2023-01-13T02:21:59.577Z,3.10
2023-01-13T02:25:10.692Z,3.03
2023-01-13T02:27:49.957Z,3.25
2023-01-13T02:31:00.029Z,2.65
2023-01-13T02:34:11.161Z,2.80
2023-01-13T02:36:54.108Z,2.95
2023-01-13T02:39:33.280Z,3.03
2023-01-13T02:42:32.849Z,2.45
2023-01-13T02:45:26.737Z,2.60
2023-01-13T02:47:57.347Z,2.85
2023-01-13T02:50:32.817Z,2.65
2023-01-13T02:53:06.365Z,1.95
2023-01-13T02:58:10.850Z,2.97
2023-01-13T03:00:46.333Z,2.35
2023-01-13T03:03:14.135Z,2.58
2023-01-13T03:05:44.343Z,2.58
2023-01-13T03:08:23.711Z,2.92
2023-01-13T03:11:08.003Z,2.90
2023-01-13T03:13:47.503Z,3.40
2023-01-13T03:16:30.327Z,2.80
2023-01-13T03:19:48.095Z,3.08
2023-01-13T03:22:16.687Z,3.28
2023-01-13T03:24:53.795Z,3.25
2023-01-13T03:27:33.128Z,3.25
2023-01-13T03:30:43.465Z,2.75
2023-01-13T03:33:41.963Z,3.17
2023-01-13T03:36:13.197Z,3.10
2023-01-13T03:38:44.853Z,3.50
2023-01-13T03:41:43.827Z,3.22
2023-01-13T03:44:28.395Z,3.50
2023-01-13T03:47:29.752Z,2.88
2023-01-13T03:50:00.093Z,3.47
2023-01-13T03:52:38.379Z,3.10
2023-01-13T03:55:18.936Z,3.00
2023-01-13T03:57:55.160Z,2.70
2023-01-13T04:00:31.852Z,2.95
2023-01-13T04:03:05.349Z,3.30
2023-01-13T04:05:36.702Z,3.10
2023-01-13T04:08:21.376Z,3.28
2023-01-13T04:11:14.978Z,2.85
2023-01-13T04:13:45.396Z,3.40
2023-01-13T04:16:18.779Z,2.80
2023-01-13T04:18:46.112Z,2.72
2023-01-13T04:21:13.714Z,3.33
2023-01-13T04:23:41.047Z,2.72
2023-01-13T04:26:08.526Z,3.10
2023-01-13T04:28:36.047Z,2.60
2023-01-13T04:31:05.559Z,2.85
2023-01-13T04:33:34.045Z,2.78
2023-01-13T04:36:01.424Z,2.42
2023-01-13T04:38:28.956Z,3.20
2023-01-13T04:40:56.315Z,2.88
2023-01-13T04:43:23.767Z,3.42
2023-01-13T04:45:51.758Z,2.40
2023-01-13T04:48:19.454Z,3.00
2023-01-13T04:50:53.841Z,2.50
2023-01-13T04:53:22.277Z,2.50
2023-01-13T04:55:49.986Z,2.25
2023-01-13T04:58:24.996Z,2.30
2023-01-13T05:00:52.625Z,2.28
2023-01-13T05:03:19.733Z,2.25
2023-01-13T05:05:51.832Z,2.10
2023-01-13T05:08:19.410Z,2.30
2023-01-13T05:10:46.904Z,2.38
2023-01-13T05:13:32.918Z,2.25
2023-01-13T05:16:25.415Z,2.33
2023-01-13T05:18:53.789Z,2.42
2023-01-13T05:21:41.271Z,2.40
2023-01-13T05:24:28.436Z,1.95
2023-01-13T05:26:55.519Z,2.20
2023-01-13T05:29:23.999Z,2.58
2023-01-13T05:31:51.459Z,2.22
2023-01-13T05:34:18.944Z,2.15
2023-01-13T05:36:46.340Z,1.75
2023-01-13T05:39:13.922Z,2.00
2023-01-13T05:41:59.815Z,2.35
2023-01-13T05:44:27.244Z,2.35
2023-01-13T05:46:54.686Z,2.42
2023-01-13T05:49:22.088Z,2.63
2023-01-13T05:51:49.650Z,2.30
2023-01-13T05:54:23.197Z,2.58
2023-01-13T05:59:19.582Z,2.45
2023-01-13T06:01:47.080Z,2.42
2023-01-13T06:04:14.191Z,2.65
2023-01-13T06:06:43.450Z,2.88
2023-01-13T06:09:10.928Z,2.90
2023-01-13T06:11:38.415Z,2.95
2023-01-13T06:14:05.961Z,2.63
2023-01-13T06:16:33.398Z,2.88
2023-01-13T06:19:00.818Z,2.33
2023-01-13T06:21:28.311Z,2.53
2023-01-13T06:23:58.941Z,2.35
2023-01-13T06:26:29.449Z,2.38
2023-01-13T06:28:56.760Z,2.65
2023-01-13T06:31:25.421Z,2.60
2023-01-13T06:34:01.053Z,2.35
2023-01-13T06:36:35.927Z,2.67
2023-01-13T06:39:05.187Z,2.72
2023-01-13T06:41:53.545Z,2.50
2023-01-13T06:44:23.369Z,1.85
2023-01-13T06:46:52.554Z,2.40
2023-01-13T06:49:21.596Z,2.30
2023-01-13T06:51:55.103Z,2.33
2023-01-13T06:54:22.532Z,2.13
2023-01-13T06:56:50.017Z,1.85
2023-01-13T06:59:17.461Z,2.50
2023-01-13T07:01:45.093Z,2.20
2023-01-13T07:04:12.236Z,2.20
2023-01-13T07:06:40.340Z,2.65
2023-01-13T07:09:07.806Z,2.53
2023-01-13T07:11:35.282Z,2.30
2023-01-13T07:14:21.122Z,2.17
2023-01-13T07:16:48.670Z,2.60
2023-01-13T07:19:23.502Z,2.50
2023-01-13T07:21:56.854Z,2.28
2023-01-13T07:24:24.332Z,2.30
2023-01-13T07:26:52.721Z,2.20
2023-01-13T07:29:22.236Z,2.03
2023-01-13T07:31:50.433Z,2.40
2023-01-13T07:34:18.863Z,3.95
2023-01-13T07:36:46.206Z,2.83
2023-01-13T07:39:13.666Z,2.90
2023-01-13T07:41:59.494Z,2.55
2023-01-13T07:44:28.020Z,2.55
2023-01-13T07:46:57.572Z,2.58
2023-01-13T07:49:24.868Z,2.28
2023-01-13T07:51:52.392Z,2.67
2023-01-13T07:54:25.499Z,2.50
2023-01-13T07:56:59.090Z,2.20
2023-01-13T07:59:26.652Z,2.70
2023-01-13T08:01:55.288Z,2.90
2023-01-13T08:04:27.199Z,2.30
2023-01-13T08:06:54.588Z,2.20
2023-01-13T08:09:21.615Z,2.33
2023-01-13T08:12:08.927Z,2.45
2023-01-13T08:14:36.440Z,2.08
2023-01-13T08:17:04.124Z,2.08
2023-01-13T08:19:32.394Z,1.92
2023-01-13T08:21:59.401Z,2.05
2023-01-13T08:24:26.901Z,1.92
2023-01-13T08:26:54.242Z,1.70
2023-01-13T08:29:21.646Z,1.83
2023-01-13T08:31:48.777Z,1.80
2023-01-13T08:34:16.043Z,2.08
2023-01-13T08:36:43.052Z,1.70
2023-01-13T08:39:10.576Z,1.70
2023-01-13T08:41:56.108Z,2.20
2023-01-13T08:44:25.569Z,2.08
2023-01-13T08:46:53.026Z,1.52
2023-01-13T08:49:20.927Z,2.05
2023-01-13T08:51:48.938Z,1.70
2023-01-13T08:54:17.085Z,1.88
2023-01-13T08:56:46.504Z,1.60
2023-01-13T08:59:15.380Z,1.75
2023-01-13T09:01:43.107Z,1.83
2023-01-13T09:04:22.112Z,1.90
2023-01-13T09:06:50.191Z,1.88
2023-01-13T09:09:18.688Z,1.50
2023-01-13T09:12:08.420Z,1.63
2023-01-13T09:14:38.964Z,1.63
2023-01-13T09:17:06.841Z,1.92
2023-01-13T09:19:34.407Z,1.60
2023-01-13T09:22:02.030Z,1.52
2023-01-13T09:24:29.713Z,1.80
2023-01-13T09:26:56.895Z,1.90
2023-01-13T09:29:26.057Z,1.88
2023-01-13T09:31:53.189Z,1.65
2023-01-13T09:34:39.429Z,1.80
2023-01-13T09:37:07.904Z,1.95
2023-01-13T09:39:36.327Z,1.63
2023-01-13T09:43:02.652Z,1.60
2023-01-13T09:45:37.738Z,1.83
2023-01-13T09:48:13.795Z,1.85
2023-01-13T09:51:10.330Z,1.95
2023-01-13T09:54:06.397Z,6.50
2023-01-13T09:56:33.600Z,1.70
2023-01-13T09:59:00.788Z,1.63
2023-01-13T10:01:33.487Z,2.08
2023-01-13T10:04:06.139Z,1.97
2023-01-13T10:06:39.055Z,1.70
2023-01-13T10:09:06.627Z,2.17
2023-01-13T10:11:59.330Z,2.05
2023-01-13T10:14:40.955Z,1.75
2023-01-13T10:17:19.547Z,1.80
2023-01-13T10:20:13.191Z,1.80
2023-01-13T10:22:42.492Z,1.85
2023-01-13T10:25:28.017Z,1.80
2023-01-13T10:28:02.420Z,1.90
2023-01-13T10:30:35.076Z,1.75
2023-01-13T10:33:20.992Z,1.50
2023-01-13T10:35:56.231Z,1.50
2023-01-13T10:38:40.357Z,1.50
2023-01-13T10:41:28.148Z,1.52
2023-01-13T10:44:01.306Z,1.27
2023-01-13T10:46:34.163Z,1.58
2023-01-13T10:49:21.232Z,1.50
2023-01-13T10:51:48.656Z,1.88
2023-01-13T10:54:25.919Z,1.40
2023-01-13T10:57:35.995Z,1.67
2023-01-13T11:00:05.457Z,1.98
2023-01-13T11:02:39.026Z,1.58
2023-01-13T11:07:58.335Z,1.60
2023-01-13T11:10:28.644Z,1.40
2023-01-13T11:13:19.393Z,1.60
2023-01-13T11:16:07.889Z,1.85
2023-01-13T11:19:02.811Z,1.40
2023-01-13T11:21:39.370Z,1.40
2023-01-13T11:24:40.390Z,1.30
2023-01-13T11:27:22.441Z,1.60
2023-01-13T11:30:00.588Z,1.45
2023-01-13T11:32:39.906Z,1.55
2023-01-13T11:35:20.426Z,3.42
2023-01-13T11:38:03.391Z,1.63
2023-01-13T11:41:25.249Z,1.83
2023-01-13T11:44:00.699Z,1.92
2023-01-13T11:46:29.052Z,1.50
2023-01-13T11:48:57.179Z,1.52
2023-01-13T11:51:30.621Z,1.70
2023-01-13T11:54:24.665Z,1.40
2023-01-13T11:57:29.291Z,2.00
2023-01-13T12:00:15.586Z,1.80
2023-01-13T12:02:48.560Z,3.13
2023-01-13T12:05:40.150Z,3.17
2023-01-13T12:08:21.176Z,2.25
2023-01-13T12:11:00.297Z,2.00
2023-01-13T12:13:59.043Z,1.92
2023-01-13T12:16:33.175Z,2.33
2023-01-13T12:19:08.315Z,1.90
2023-01-13T12:21:59.601Z,2.15
2023-01-13T12:24:40.219Z,2.00
2023-01-13T12:27:42.973Z,1.88
2023-01-13T12:30:43.758Z,1.98
2023-01-13T12:33:29.653Z,1.92
2023-01-13T12:36:07.147Z,1.90
2023-01-13T12:38:46.349Z,1.55
2023-01-13T12:41:27.701Z,1.70
2023-01-13T12:44:13.598Z,2.00
2023-01-13T12:46:54.686Z,2.00
2023-01-13T12:49:30.193Z,2.22
2023-01-13T12:52:16.437Z,2.25
2023-01-13T12:54:45.641Z,2.45
2023-01-13T12:57:23.015Z,2.30
2023-01-13T13:00:12.014Z,2.30
2023-01-13T13:02:41.971Z,2.45
2023-01-13T13:05:16.535Z,2.80
2023-01-13T13:07:46.403Z,2.88
2023-01-13T13:10:36.380Z,3.00
2023-01-13T13:13:42.726Z,2.67
2023-01-13T13:16:29.672Z,2.70
2023-01-13T13:19:18.480Z,3.38
2023-01-13T13:22:13.654Z,2.92
2023-01-13T13:24:51.420Z,2.70
2023-01-13T13:27:41.501Z,2.92
2023-01-13T13:30:28.897Z,3.38
2023-01-13T13:33:36.933Z,3.15
2023-01-13T13:36:35.181Z,3.47
2023-01-13T13:39:46.313Z,3.05
2023-01-13T13:42:55.705Z,3.08
2023-01-13T13:45:45.141Z,3.67
2023-01-13T13:48:34.300Z,3.22
2023-01-13T13:51:18.083Z,3.65
2023-01-13T13:53:46.476Z,3.85
2023-01-13T13:56:21.116Z,4.70
2023-01-13T13:58:49.913Z,4.47
2023-01-13T14:01:25.651Z,5.05
2023-01-13T14:04:12.870Z,4.50
2023-01-13T14:07:05.241Z,4.28
2023-01-13T14:09:45.141Z,4.38
2023-01-13T14:12:21.937Z,4.20
2023-01-13T14:14:50.318Z,4.20
2023-01-13T14:17:30.145Z,4.13
2023-01-13T14:20:03.001Z,3.75
2023-01-13T14:22:30.648Z,4.80
2023-01-13T14:25:02.176Z,4.40
2023-01-13T14:27:31.584Z,3.80
2023-01-13T14:30:03.827Z,4.03
2023-01-13T14:32:37.984Z,3.70
2023-01-13T14:35:09.760Z,3.65
2023-01-13T14:37:42.422Z,3.65
2023-01-13T14:40:48.291Z,3.35
2023-01-13T14:43:18.926Z,2.70
2023-01-13T14:45:58.871Z,3.10
2023-01-13T14:48:36.260Z,3.08
2023-01-13T14:51:13.275Z,3.10
2023-01-13T14:53:46.475Z,3.10
2023-01-13T14:56:51.084Z,2.97
2023-01-13T14:59:46.685Z,2.92
2023-01-13T15:02:34.562Z,3.55
2023-01-13T15:05:20.155Z,4.00
2023-01-13T15:08:00.233Z,3.80
2023-01-13T15:10:29.427Z,3.47
2023-01-13T15:12:59.486Z,3.90
2023-01-13T15:15:33.240Z,4.15
2023-01-13T15:18:02.343Z,4.50
2023-01-13T15:20:29.771Z,4.07
2023-01-13T15:23:01.637Z,4.38
2023-01-13T15:25:38.755Z,3.58
2023-01-13T15:28:08.111Z,3.65
2023-01-13T15:30:36.290Z,3.70
2023-01-13T15:33:13.345Z,3.63
2023-01-13T15:35:44.874Z,3.55
2023-01-13T15:38:15.748Z,3.40
2023-01-13T15:40:45.143Z,3.10
2023-01-13T15:43:36.395Z,3.20
2023-01-13T15:46:30.538Z,3.28
2023-01-13T15:51:27.107Z,2.55
2023-01-13T15:53:54.589Z,3.10
2023-01-13T15:56:26.935Z,3.10
2023-01-13T15:58:54.285Z,2.70
2023-01-13T16:01:23.622Z,3.25
2023-01-13T16:03:52.469Z,3.20
2023-01-13T16:06:30.176Z,3.45
2023-01-13T16:08:57.708Z,3.92
2023-01-13T16:11:25.647Z,3.88
2023-01-13T16:13:52.847Z,4.43
2023-01-13T16:16:26.732Z,5.22
2023-01-13T16:18:55.895Z,4.78
2023-01-13T16:21:25.277Z,5.28
2023-01-13T16:23:54.583Z,5.30
2023-01-13T16:26:25.357Z,5.55
2023-01-13T16:28:55.588Z,5.53
2023-01-13T16:31:32.126Z,6.28
2023-01-13T16:34:04.728Z,6.85
2023-01-13T16:36:35.968Z,6.63
2023-01-13T16:39:05.353Z,6.95
2023-01-13T16:41:34.917Z,6.72
2023-01-13T16:44:06.315Z,6.72
2023-01-13T16:46:34.034Z,7.50
2023-01-13T16:49:06.739Z,7.50
2023-01-13T16:51:34.229Z,6.77
2023-01-13T16:54:02.463Z,6.35
2023-01-13T16:56:35.226Z,7.47
2023-01-13T16:59:09.788Z,7.40
2023-01-13T17:01:40.270Z,7.70
2023-01-13T17:04:09.703Z,7.82
2023-01-13T17:06:53.154Z,6.68
2023-01-13T17:09:24.251Z,7.40
2023-01-13T17:11:52.025Z,8.13
2023-01-13T17:14:23.664Z,7.93
2023-01-13T17:16:53.348Z,8.40
2023-01-13T17:19:22.825Z,7.55
2023-01-13T17:21:51.362Z,7.63
2023-01-13T17:24:19.005Z,7.47
2023-01-13T17:26:49.855Z,7.95
2023-01-13T17:29:20.984Z,8.25
2023-01-13T17:31:50.085Z,8.73
2023-01-13T17:34:18.215Z,7.90
2023-01-13T17:36:45.588Z,9.18
2023-01-13T17:39:18.324Z,8.80
2023-01-13T17:41:46.385Z,9.60
2023-01-13T17:44:19.456Z,9.55
2023-01-13T17:46:55.331Z,9.00
2023-01-13T17:49:23.000Z,10.55
2023-01-13T17:51:51.801Z,10.48
2023-01-13T17:54:21.156Z,10.75
2023-01-13T17:56:49.276Z,11.60
2023-01-13T17:59:23.666Z,11.43
2023-01-13T18:01:52.645Z,11.80
2023-01-13T18:04:23.888Z,11.77
2023-01-13T18:06:52.250Z,11.77
2023-01-13T18:09:19.933Z,12.35
2023-01-13T18:11:48.670Z,11.75
2023-01-13T18:14:18.466Z,11.68
2023-01-13T18:16:45.891Z,12.00
2023-01-13T18:19:33.101Z,10.93
2023-01-13T18:22:19.642Z,10.65
2023-01-13T18:25:06.784Z,8.88
2023-01-13T18:27:38.771Z,10.07
2023-01-13T18:30:10.002Z,10.77
2023-01-13T18:32:37.785Z,13.13
2023-01-13T18:35:10.613Z,17.70
2023-01-13T18:37:48.317Z,20.60
2023-01-13T18:40:17.178Z,19.05
2023-01-13T18:42:59.555Z,19.02
2023-01-13T18:45:30.120Z,20.15
2023-01-13T18:48:01.052Z,24.67
2023-01-13T18:50:30.098Z,28.30
2023-01-13T18:52:58.337Z,28.52
2023-01-13T18:55:30.792Z,29.58
2023-01-13T18:57:59.334Z,30.48
2023-01-13T19:00:28.051Z,30.30
2023-01-13T19:05:36.234Z,19.85
2023-01-13T19:08:05.459Z,21.48
2023-01-13T19:10:34.482Z,17.73
2023-01-13T19:13:02.487Z,15.50
2023-01-13T19:15:30.683Z,8.68
2023-01-13T19:17:58.612Z,7.70
2023-01-13T19:20:29.224Z,5.50
2023-01-13T19:22:57.017Z,6.13
2023-01-13T19:25:24.309Z,5.65
2023-01-13T19:27:59.207Z,5.38
2023-01-13T19:30:28.848Z,4.00
2023-01-13T19:32:57.109Z,5.28
2023-01-13T19:35:26.912Z,5.88
2023-01-13T19:37:56.350Z,5.25
2023-01-13T19:40:24.371Z,4.72
2023-01-13T19:43:10.207Z,2.80
2023-01-13T19:45:37.968Z,2.95
2023-01-13T19:48:06.180Z,2.95
2023-01-13T19:50:39.434Z,3.47
2023-01-13T19:53:08.227Z,3.75
2023-01-13T19:55:49.088Z,3.15
2023-01-13T19:58:20.631Z,2.67
2023-01-13T20:00:49.915Z,2.83
2023-01-13T20:03:21.267Z,2.85
2023-01-13T20:05:52.837Z,2.17
2023-01-13T20:08:23.179Z,3.10
2023-01-13T20:10:51.566Z,3.70
2023-01-13T20:13:20.629Z,3.08
2023-01-13T20:15:48.430Z,3.28
2023-01-13T20:18:16.385Z,3.65
2023-01-13T20:20:43.850Z,4.45
2023-01-13T20:23:13.117Z,2.97
2023-01-13T20:25:43.371Z,4.32
2023-01-13T20:28:11.231Z,2.92
2023-01-13T20:30:40.850Z,2.85
2023-01-13T20:33:09.355Z,2.70
2023-01-13T20:35:39.181Z,2.83
2023-01-13T20:38:06.867Z,2.28
2023-01-13T20:40:34.599Z,2.17
2023-01-13T20:43:02.639Z,2.78
2023-01-13T20:45:30.135Z,2.70
2023-01-13T20:47:57.637Z,3.13
2023-01-13T20:50:25.458Z,2.92
2023-01-13T20:52:54.090Z,2.70
2023-01-13T20:55:24.625Z,2.45
2023-01-13T20:57:52.276Z,2.35
2023-01-13T21:00:20.813Z,4.55
2023-01-13T21:02:49.847Z,2.30
2023-01-13T21:05:18.787Z,2.00
2023-01-13T21:07:46.633Z,2.15
2023-01-13T21:10:20.423Z,2.60
2023-01-13T21:13:06.963Z,2.58
2023-01-13T21:15:34.360Z,2.30
2023-01-13T21:18:26.492Z,2.10
2023-01-13T21:21:11.794Z,2.00
2023-01-13T21:23:42.643Z,2.67
2023-01-13T21:26:11.879Z,2.78
2023-01-13T21:28:39.566Z,2.70
2023-01-13T21:31:09.542Z,2.78
2023-01-13T21:33:37.441Z,2.40
2023-01-13T21:36:09.100Z,2.92
2023-01-13T21:38:36.860Z,3.30
2023-01-13T21:41:07.103Z,3.42
2023-01-13T21:43:56.881Z,3.15
2023-01-13T21:46:43.900Z,3.72
2023-01-13T21:49:11.199Z,3.90
2023-01-13T21:51:38.541Z,4.10
2023-01-13T21:54:07.050Z,3.83
2023-01-13T21:56:36.539Z,4.63
2023-01-13T21:59:04.014Z,4.15
2023-01-13T22:01:31.508Z,3.53
2023-01-13T22:04:13.907Z,4.28
2023-01-13T22:06:42.284Z,3.75
2023-01-13T22:09:09.704Z,4.22
2023-01-13T22:11:44.749Z,4.38
2023-01-13T22:14:14.235Z,4.38
2023-01-13T22:16:49.310Z,3.30
2023-01-13T22:19:18.460Z,3.17
2023-01-13T22:21:45.903Z,3.30
2023-01-13T22:24:13.455Z,3.10
2023-01-13T22:26:40.715Z,2.85
2023-01-13T22:29:08.253Z,3.25
2023-01-13T22:31:35.940Z,2.50
2023-01-13T22:34:04.351Z,2.60
2023-01-13T22:36:31.701Z,2.47
2023-01-13T22:39:01.196Z,2.83
2023-01-13T22:41:28.619Z,3.05
2023-01-13T22:43:58.111Z,3.10
2023-01-13T22:46:25.652Z,2.72
2023-01-13T22:48:54.134Z,2.75
2023-01-13T22:51:23.059Z,3.35
2023-01-13T22:53:51.432Z,2.50
2023-01-13T22:56:22.170Z,2.40
2023-01-13T22:58:58.498Z,2.45
2023-01-13T23:01:27.875Z,2.80
2023-01-13T23:03:55.922Z,2.80
2023-01-13T23:06:26.511Z,2.50
2023-01-13T23:08:54.353Z,2.50
2023-01-13T23:11:26.789Z,2.35
2023-01-13T23:14:02.537Z,2.50
2023-01-13T23:16:31.218Z,2.88
2023-01-13T23:18:58.670Z,2.85
2023-01-13T23:21:30.863Z,2.53
2023-01-13T23:23:58.978Z,2.70
2023-01-13T23:26:28.789Z,5.30
2023-01-13T23:29:01.902Z,4.85
2023-01-13T23:31:29.740Z,2.70
2023-01-13T23:33:59.958Z,2.67
2023-01-13T23:36:29.653Z,2.58
2023-01-13T23:39:00.113Z,2.67
2023-01-13T23:41:28.725Z,2.83
2023-01-13T23:43:58.608Z,2.47
2023-01-13T23:46:34.174Z,2.28
2023-01-13T23:49:03.745Z,2.47
2023-01-13T23:51:31.645Z,2.50
2023-01-13T23:53:59.758Z,2.15
2023-01-13T23:56:31.381Z,2.08
2023-01-13T23:58:59.263Z,2.22
